createdAt,value
2016-05-19T00:00:15.788Z,0
2016-05-19T00:01:15.932Z,0
2016-05-19T00:02:15.762Z,0
2016-05-19T00:03:15.640Z,0
2016-05-19T00:04:15.565Z,0
2016-05-19T00:05:15.723Z,0
2016-05-19T00:06:15.695Z,0
2016-05-19T00:07:15.681Z,0
2016-05-19T00:08:15.966Z,0
2016-05-19T00:09:15.672Z,0
2016-05-19T00:10:15.331Z,0
2016-05-19T00:11:15.631Z,0
2016-05-19T00:12:15.617Z,0
2016-05-19T00:13:15.620Z,0
2016-05-19T00:14:15.576Z,0
2016-05-19T00:15:15.579Z,0
2016-05-19T00:16:15.550Z,0
2016-05-19T00:17:15.538Z,0
2016-05-19T00:18:15.541Z,0
2016-05-19T00:19:15.511Z,0
2016-05-19T00:20:15.702Z,0
2016-05-19T00:21:15.485Z,0
2016-05-19T00:22:15.316Z,0
2016-05-19T00:23:15.616Z,0
2016-05-19T00:24:15.462Z,0
2016-05-19T00:25:15.278Z,0
2016-05-19T00:26:15.421Z,0
2016-05-19T00:27:15.251Z,0
2016-05-19T00:28:15.395Z,0
2016-05-19T00:29:15.226Z,0
2016-05-19T00:30:15.369Z,0
2016-05-19T00:31:15.200Z,0
2016-05-19T00:32:15.187Z,0
2016-05-19T00:33:15.314Z,0
2016-05-19T00:34:15.317Z,0
2016-05-19T00:35:15.289Z,0
2016-05-19T00:36:15.276Z,0
2016-05-19T00:37:15.107Z,0
2016-05-19T00:38:15.625Z,0
2016-05-19T00:39:15.237Z,0
2016-05-19T00:40:15.225Z,0
2016-05-19T00:41:15.055Z,0
2016-05-19T00:42:15.198Z,0
2016-05-19T00:43:15.045Z,0
2016-05-19T00:44:15.016Z,0
2016-05-19T00:45:15.159Z,0
2016-05-19T00:46:15.147Z,0
2016-05-19T00:47:14.977Z,0
2016-05-19T00:48:15.121Z,0
2016-05-19T00:49:15.092Z,0
2016-05-19T00:50:15.079Z,0
2016-05-19T00:51:14.910Z,0
2016-05-19T00:52:15.069Z,0
2016-05-19T00:53:14.884Z,0
2016-05-19T00:54:15.043Z,0
2016-05-19T00:55:15.015Z,0
2016-05-19T00:56:15.002Z,0
2016-05-19T00:57:15.005Z,0
2016-05-19T00:58:14.976Z,0
2016-05-19T00:59:14.962Z,0
2016-05-19T01:00:14.966Z,0
2016-05-19T01:01:14.781Z,0
2016-05-19T01:02:14.923Z,0
2016-05-19T01:03:14.926Z,0
2016-05-19T01:04:14.742Z,0
2016-05-19T01:05:14.885Z,0
2016-05-19T01:06:14.888Z,0
2016-05-19T01:07:14.859Z,0
2016-05-19T01:08:14.831Z,0
2016-05-19T01:09:14.678Z,0
2016-05-19T01:10:14.805Z,0
2016-05-19T01:11:14.651Z,0
2016-05-19T01:12:14.778Z,0
2016-05-19T01:13:14.766Z,0
2016-05-19T01:14:14.769Z,0
2016-05-19T01:15:14.740Z,0
2016-05-19T01:16:14.727Z,0
2016-05-19T01:17:14.699Z,0
2016-05-19T01:18:14.702Z,0
2016-05-19T01:19:14.705Z,0
2016-05-19T01:20:14.675Z,0
2016-05-19T01:21:14.646Z,0
2016-05-19T01:22:14.650Z,0
2016-05-19T01:23:14.637Z,0
2016-05-19T01:24:14.624Z,0
2016-05-19T01:25:14.595Z,0
2016-05-19T01:26:14.582Z,0
2016-05-19T01:27:14.585Z,0
2016-05-19T01:28:14.416Z,0
2016-05-19T01:29:14.387Z,0
2016-05-19T01:30:14.530Z,0
2016-05-19T01:31:14.518Z,0
2016-05-19T01:32:14.348Z,0
2016-05-19T01:33:14.492Z,0
2016-05-19T01:34:14.495Z,0
2016-05-19T01:35:14.481Z,0
2016-05-19T01:36:14.453Z,0
2016-05-19T01:37:14.440Z,0
2016-05-19T01:38:14.270Z,0
2016-05-19T01:39:14.415Z,0
2016-05-19T01:40:14.400Z,0
2016-05-19T01:41:14.388Z,0
2016-05-19T01:42:14.375Z,0
2016-05-19T01:43:14.362Z,0
2016-05-19T01:44:14.193Z,0
2016-05-19T01:45:14.337Z,0
2016-05-19T01:46:14.323Z,0
2016-05-19T01:47:14.155Z,0
2016-05-19T01:48:14.282Z,0
2016-05-19T01:49:14.128Z,0
2016-05-19T01:50:14.288Z,0
2016-05-19T01:51:14.087Z,0
2016-05-19T01:52:14.074Z,0
2016-05-19T01:53:13.921Z,0
2016-05-19T01:54:14.205Z,0
2016-05-19T01:55:14.191Z,0
2016-05-19T01:56:14.179Z,0
2016-05-19T01:57:14.166Z,0
2016-05-19T01:58:14.152Z,0
2016-05-19T01:59:13.827Z,0
2016-05-19T02:00:13.971Z,0
2016-05-19T02:01:13.957Z,0
2016-05-19T02:02:14.101Z,0
2016-05-19T02:03:13.915Z,0
2016-05-19T02:04:13.903Z,0
2016-05-19T02:05:14.047Z,0
2016-05-19T02:06:14.049Z,0
2016-05-19T02:07:14.020Z,0
2016-05-19T02:08:13.914Z,0
2016-05-19T02:09:13.995Z,0
2016-05-19T02:10:13.982Z,0
2016-05-19T02:11:13.970Z,0
2016-05-19T02:12:13.956Z,0
2016-05-19T02:13:13.787Z,0
2016-05-19T02:14:13.774Z,0
2016-05-19T02:15:13.917Z,0
2016-05-19T02:16:13.904Z,0
2016-05-19T02:17:13.735Z,0
2016-05-19T02:18:13.878Z,0
2016-05-19T02:19:13.866Z,0
2016-05-19T02:20:13.852Z,0
2016-05-19T02:21:13.839Z,0
2016-05-19T02:22:13.811Z,0
2016-05-19T02:23:13.985Z,0
2016-05-19T02:24:14.488Z,0
2016-05-19T02:25:13.827Z,0
2016-05-19T02:26:13.767Z,0
2016-05-19T02:27:13.754Z,0
2016-05-19T02:28:13.569Z,0
2016-05-19T02:29:13.728Z,0
2016-05-19T02:30:13.700Z,0
2016-05-19T02:31:13.687Z,0
2016-05-19T02:32:13.533Z,0
2016-05-19T02:33:13.660Z,0
2016-05-19T02:34:13.648Z,0
2016-05-19T02:35:13.651Z,0
2016-05-19T02:36:13.622Z,0
2016-05-19T02:37:13.609Z,0
2016-05-19T02:38:14.002Z,0
2016-05-19T02:39:13.568Z,0
2016-05-19T02:40:13.601Z,0
2016-05-19T02:41:13.429Z,0
2016-05-19T02:42:13.616Z,0
2016-05-19T02:43:13.334Z,0
2016-05-19T02:44:13.677Z,0
2016-05-19T02:45:13.692Z,0
2016-05-19T02:46:13.547Z,0
2016-05-19T02:47:13.691Z,0
2016-05-19T02:48:13.693Z,0
2016-05-19T02:49:13.696Z,0
2016-05-19T02:50:13.714Z,0
2016-05-19T02:51:13.694Z,0
2016-05-19T02:52:13.687Z,0
2016-05-19T02:53:14.102Z,0
2016-05-19T02:54:13.672Z,0
2016-05-19T02:55:13.493Z,0
2016-05-19T02:56:13.515Z,0
2016-05-19T02:57:13.645Z,0
2016-05-19T02:58:13.633Z,0
2016-05-19T02:59:13.607Z,4
2016-05-19T03:00:13.597Z,4
2016-05-19T03:01:13.585Z,4
2016-05-19T03:02:13.588Z,0
2016-05-19T03:03:13.544Z,4
2016-05-19T03:04:13.532Z,4
2016-05-19T03:05:13.379Z,4
2016-05-19T03:06:13.524Z,4
2016-05-19T03:07:13.574Z,4
2016-05-19T03:08:13.513Z,8
2016-05-19T03:09:13.455Z,4
2016-05-19T03:10:13.582Z,8
2016-05-19T03:11:13.460Z,8
2016-05-19T03:12:13.275Z,12
2016-05-19T03:13:13.419Z,12
2016-05-19T03:14:13.391Z,12
2016-05-19T03:15:13.394Z,16
2016-05-19T03:16:13.255Z,20
2016-05-19T03:17:13.227Z,20
2016-05-19T03:18:13.183Z,24
2016-05-19T03:19:13.341Z,28
2016-05-19T03:20:13.313Z,28
2016-05-19T03:21:13.160Z,32
2016-05-19T03:22:13.130Z,36
2016-05-19T03:23:13.665Z,40
2016-05-19T03:24:13.245Z,44
2016-05-19T03:25:13.091Z,48
2016-05-19T03:26:13.219Z,52
2016-05-19T03:27:13.268Z,56
2016-05-19T03:28:13.209Z,64
2016-05-19T03:29:13.196Z,68
2016-05-19T03:30:13.387Z,76
2016-05-19T03:31:13.029Z,84
2016-05-19T03:32:13.126Z,92
2016-05-19T03:33:13.145Z,96
2016-05-19T03:34:13.101Z,104
2016-05-19T03:35:13.119Z,108
2016-05-19T03:36:13.075Z,116
2016-05-19T03:37:13.078Z,124
2016-05-19T03:38:12.908Z,132
2016-05-19T03:39:12.878Z,140
2016-05-19T03:40:13.007Z,152
2016-05-19T03:41:13.009Z,164
2016-05-19T03:42:12.997Z,168
2016-05-19T03:43:12.811Z,180
2016-05-19T03:44:12.955Z,184
2016-05-19T03:45:12.786Z,188
2016-05-19T03:46:12.929Z,192
2016-05-19T03:47:12.760Z,200
2016-05-19T03:48:12.888Z,224
2016-05-19T03:49:12.906Z,244
2016-05-19T03:50:12.863Z,256
2016-05-19T03:51:12.849Z,272
2016-05-19T03:52:12.836Z,288
2016-05-19T03:53:13.667Z,304
2016-05-19T03:54:12.795Z,324
2016-05-19T03:55:12.641Z,344
2016-05-19T03:56:12.785Z,364
2016-05-19T03:57:12.771Z,380
2016-05-19T03:58:12.759Z,392
2016-05-19T03:59:12.746Z,404
2016-05-19T04:00:12.560Z,416
2016-05-19T04:01:12.704Z,420
2016-05-19T04:02:12.378Z,424
2016-05-19T04:03:12.678Z,436
2016-05-19T04:04:12.681Z,448
2016-05-19T04:05:12.340Z,468
2016-05-19T04:06:12.655Z,496
2016-05-19T04:07:12.486Z,516
2016-05-19T04:08:13.082Z,524
2016-05-19T04:09:12.429Z,520
2016-05-19T04:10:12.573Z,504
2016-05-19T04:11:12.247Z,496
2016-05-19T04:12:12.531Z,500
2016-05-19T04:13:12.534Z,520
2016-05-19T04:14:12.364Z,548
2016-05-19T04:15:12.507Z,580
2016-05-19T04:16:12.478Z,584
2016-05-19T04:17:12.450Z,584
2016-05-19T04:18:12.453Z,600
2016-05-19T04:19:12.268Z,620
2016-05-19T04:20:12.411Z,640
2016-05-19T04:21:12.413Z,652
2016-05-19T04:22:12.385Z,672
2016-05-19T04:23:12.497Z,688
2016-05-19T04:24:12.344Z,704
2016-05-19T04:25:12.332Z,724
2016-05-19T04:26:12.177Z,736
2016-05-19T04:27:12.305Z,760
2016-05-19T04:28:12.293Z,784
2016-05-19T04:29:12.124Z,816
2016-05-19T04:30:12.266Z,860
2016-05-19T04:31:12.254Z,928
2016-05-19T04:32:12.085Z,996
2016-05-19T04:33:12.212Z,1052
2016-05-19T04:34:12.199Z,1116
2016-05-19T04:35:12.029Z,1160
2016-05-19T04:36:12.173Z,1168
2016-05-19T04:37:12.160Z,1160
2016-05-19T04:38:12.162Z,1132
2016-05-19T04:39:12.135Z,1124
2016-05-19T04:40:12.106Z,1128
2016-05-19T04:41:12.108Z,1136
2016-05-19T04:42:12.081Z,1152
2016-05-19T04:43:12.083Z,1168
2016-05-19T04:44:11.914Z,1188
2016-05-19T04:45:12.056Z,1192
2016-05-19T04:46:12.028Z,1180
2016-05-19T04:47:11.999Z,1212
2016-05-19T04:48:12.003Z,1204
2016-05-19T04:49:11.833Z,1204
2016-05-19T04:50:11.820Z,1212
2016-05-19T04:51:11.792Z,1216
2016-05-19T04:52:11.935Z,1232
2016-05-19T04:53:12.141Z,1268
2016-05-19T04:54:11.909Z,1292
2016-05-19T04:55:11.741Z,1336
2016-05-19T04:56:11.883Z,1440
2016-05-19T04:57:11.870Z,1632
2016-05-19T04:58:11.686Z,1840
2016-05-19T04:59:11.688Z,1928
2016-05-19T05:00:11.676Z,1884
2016-05-19T05:01:11.804Z,1820
2016-05-19T05:02:11.634Z,1800
2016-05-19T05:03:11.637Z,1800
2016-05-19T05:04:11.764Z,1828
2016-05-19T05:05:11.735Z,1884
2016-05-19T05:06:11.426Z,1988
2016-05-19T05:07:11.554Z,1924
2016-05-19T05:08:11.806Z,1808
2016-05-19T05:09:11.231Z,1740
2016-05-19T05:10:11.671Z,1712
2016-05-19T05:11:11.658Z,1716
2016-05-19T05:12:11.645Z,1768
2016-05-19T05:13:11.632Z,1936
2016-05-19T05:14:11.604Z,2024
2016-05-19T05:15:11.466Z,2132
2016-05-19T05:16:11.437Z,2208
2016-05-19T05:17:11.425Z,2224
2016-05-19T05:18:11.552Z,2200
2016-05-19T05:19:11.555Z,2192
2016-05-19T05:20:11.542Z,2132
2016-05-19T05:21:11.513Z,2120
2016-05-19T05:22:11.344Z,2224
2016-05-19T05:23:11.612Z,2240
2016-05-19T05:24:12.365Z,2136
2016-05-19T05:25:11.478Z,2148
2016-05-19T05:26:11.449Z,2216
2016-05-19T05:27:11.466Z,2368
2016-05-19T05:28:11.422Z,2436
2016-05-19T05:29:11.410Z,2456
2016-05-19T05:30:11.397Z,2572
2016-05-19T05:31:11.368Z,2664
2016-05-19T05:32:11.371Z,2676
2016-05-19T05:33:11.343Z,2652
2016-05-19T05:34:11.329Z,2588
2016-05-19T05:35:11.004Z,2564
2016-05-19T05:36:11.163Z,2480
2016-05-19T05:37:11.337Z,2360
2016-05-19T05:38:11.293Z,2308
2016-05-19T05:39:11.140Z,2328
2016-05-19T05:40:11.096Z,2320
2016-05-19T05:41:11.239Z,2380
2016-05-19T05:42:11.070Z,2448
2016-05-19T05:43:11.213Z,2488
2016-05-19T05:44:10.732Z,2544
2016-05-19T05:45:11.187Z,2520
2016-05-19T05:46:11.175Z,2508
2016-05-19T05:47:10.864Z,2436
2016-05-19T05:48:11.148Z,2292
2016-05-19T05:49:11.135Z,2136
2016-05-19T05:50:10.967Z,2056
2016-05-19T05:51:11.109Z,2036
2016-05-19T05:52:10.941Z,2180
2016-05-19T05:53:12.147Z,2420
2016-05-19T05:54:11.086Z,2556
2016-05-19T05:55:11.058Z,2616
2016-05-19T05:56:11.045Z,2624
2016-05-19T05:57:11.016Z,2688
2016-05-19T05:58:11.019Z,2784
2016-05-19T05:59:10.849Z,2892
2016-05-19T06:00:10.977Z,2924
2016-05-19T06:01:10.668Z,2792
2016-05-19T06:02:10.655Z,2752
2016-05-19T06:03:10.939Z,3004
2016-05-19T06:04:10.926Z,3440
2016-05-19T06:05:10.944Z,3392
2016-05-19T06:06:10.900Z,3124
2016-05-19T06:07:10.762Z,2776
2016-05-19T06:08:11.843Z,2272
2016-05-19T06:09:10.876Z,1916
2016-05-19T06:10:10.848Z,1752
2016-05-19T06:11:10.835Z,1700
2016-05-19T06:12:10.822Z,1728
2016-05-19T06:13:10.668Z,1784
2016-05-19T06:14:10.812Z,1876
2016-05-19T06:15:10.628Z,1920
2016-05-19T06:16:10.615Z,1908
2016-05-19T06:17:10.758Z,1868
2016-05-19T06:18:10.745Z,1836
2016-05-19T06:19:10.731Z,1896
2016-05-19T06:20:10.578Z,1984
2016-05-19T06:21:10.799Z,2072
2016-05-19T06:22:10.693Z,2196
2016-05-19T06:23:10.555Z,2404
2016-05-19T06:24:10.667Z,2648
2016-05-19T06:25:10.639Z,2836
2016-05-19T06:26:10.642Z,3020
2016-05-19T06:27:10.456Z,3172
2016-05-19T06:28:10.630Z,3372
2016-05-19T06:29:10.446Z,3644
2016-05-19T06:30:10.574Z,3976
2016-05-19T06:31:10.263Z,4308
2016-05-19T06:32:10.564Z,4648
2016-05-19T06:33:10.394Z,4900
2016-05-19T06:34:10.382Z,4868
2016-05-19T06:35:10.525Z,4576
2016-05-19T06:36:10.512Z,4104
2016-05-19T06:37:10.515Z,3876
2016-05-19T06:38:10.907Z,3900
2016-05-19T06:39:10.160Z,4056
2016-05-19T06:40:10.460Z,4272
2016-05-19T06:41:10.448Z,4500
2016-05-19T06:42:10.434Z,4652
2016-05-19T06:43:10.265Z,4472
2016-05-19T06:44:10.409Z,4144
2016-05-19T06:45:10.396Z,3892
2016-05-19T06:46:10.382Z,3848
2016-05-19T06:47:10.370Z,3944
2016-05-19T06:48:10.357Z,4080
2016-05-19T06:49:10.344Z,4196
2016-05-19T06:50:10.377Z,4248
2016-05-19T06:51:10.317Z,4300
2016-05-19T06:52:10.305Z,4452
2016-05-19T06:53:10.495Z,4568
2016-05-19T06:54:10.373Z,4660
2016-05-19T06:55:10.266Z,4888
2016-05-19T06:56:10.269Z,5380
2016-05-19T06:57:09.928Z,5912
2016-05-19T06:58:10.087Z,6380
2016-05-19T06:59:10.057Z,6536
2016-05-19T07:00:09.889Z,6284
2016-05-19T07:01:10.188Z,5788
2016-05-19T07:02:10.019Z,5308
2016-05-19T07:03:10.162Z,5080
2016-05-19T07:04:10.165Z,5028
2016-05-19T07:05:10.183Z,5144
2016-05-19T07:06:10.155Z,5204
2016-05-19T07:07:10.110Z,5016
2016-05-19T07:08:10.582Z,4736
2016-05-19T07:09:09.944Z,4544
2016-05-19T07:10:10.071Z,4500
2016-05-19T07:11:10.090Z,4440
2016-05-19T07:12:10.062Z,4280
2016-05-19T07:13:09.876Z,3780
2016-05-19T07:14:10.036Z,4076
2016-05-19T07:15:10.023Z,3848
2016-05-19T07:16:09.994Z,3856
2016-05-19T07:17:09.997Z,3860
2016-05-19T07:18:09.968Z,4360
2016-05-19T07:19:09.971Z,4724
2016-05-19T07:20:09.661Z,5136
2016-05-19T07:21:09.945Z,5140
2016-05-19T07:22:09.933Z,5004
2016-05-19T07:23:10.060Z,5424
2016-05-19T07:24:09.734Z,6076
2016-05-19T07:25:09.878Z,6636
2016-05-19T07:26:09.725Z,7384
2016-05-19T07:27:09.867Z,7816
2016-05-19T07:28:09.870Z,8068
2016-05-19T07:29:09.873Z,8104
2016-05-19T07:30:09.673Z,8320
2016-05-19T07:31:09.816Z,8616
2016-05-19T07:32:09.803Z,9312
2016-05-19T07:33:09.790Z,10728
2016-05-19T07:34:09.480Z,11176
2016-05-19T07:35:09.608Z,11800
2016-05-19T07:36:09.767Z,11428
2016-05-19T07:37:09.582Z,11044
2016-05-19T07:38:10.054Z,10812
2016-05-19T07:39:09.946Z,9768
2016-05-19T07:40:09.699Z,9224
2016-05-19T07:41:09.702Z,7684
2016-05-19T07:42:09.673Z,6860
2016-05-19T07:43:09.676Z,5836
2016-05-19T07:44:09.507Z,6052
2016-05-19T07:45:09.650Z,6172
2016-05-19T07:46:09.638Z,6012
2016-05-19T07:47:09.640Z,5988
2016-05-19T07:48:09.611Z,5644
2016-05-19T07:49:09.615Z,5000
2016-05-19T07:50:09.430Z,4516
2016-05-19T07:51:09.589Z,4256
2016-05-19T07:52:09.420Z,4348
2016-05-19T07:53:09.266Z,4320
2016-05-19T07:54:09.394Z,4304
2016-05-19T07:55:09.380Z,4248
2016-05-19T07:56:09.367Z,4096
2016-05-19T07:57:09.527Z,4204
2016-05-19T07:58:09.514Z,4484
2016-05-19T07:59:09.500Z,5024
2016-05-19T08:00:09.347Z,5468
2016-05-19T08:01:09.303Z,6028
2016-05-19T08:02:09.305Z,6152
2016-05-19T08:03:09.293Z,6092
2016-05-19T08:04:09.435Z,6588
2016-05-19T08:05:09.423Z,6736
2016-05-19T08:06:09.426Z,6736
2016-05-19T08:07:09.241Z,5936
2016-05-19T08:08:09.244Z,5484
2016-05-19T08:09:09.263Z,5788
2016-05-19T08:10:09.358Z,6168
2016-05-19T08:11:09.361Z,6376
2016-05-19T08:12:09.348Z,6552
2016-05-19T08:13:09.335Z,6616
2016-05-19T08:14:09.307Z,6384
2016-05-19T08:15:09.309Z,6156
2016-05-19T08:16:09.296Z,6104
2016-05-19T08:17:09.159Z,6184
2016-05-19T08:18:09.115Z,6216
2016-05-19T08:19:09.101Z,5928
2016-05-19T08:20:09.245Z,5196
2016-05-19T08:21:08.919Z,4592
2016-05-19T08:22:09.219Z,4096
2016-05-19T08:23:09.222Z,3972
2016-05-19T08:24:09.411Z,3988
2016-05-19T08:25:09.039Z,4012
2016-05-19T08:26:09.182Z,4060
2016-05-19T08:27:09.169Z,3996
2016-05-19T08:28:09.156Z,3988
2016-05-19T08:29:08.988Z,4056
2016-05-19T08:30:09.131Z,4196
2016-05-19T08:31:08.852Z,4528
2016-05-19T08:32:09.105Z,5020
2016-05-19T08:33:08.936Z,5608
2016-05-19T08:34:08.938Z,6524
2016-05-19T08:35:08.911Z,7232
2016-05-19T08:36:08.897Z,7524
2016-05-19T08:37:09.056Z,7568
2016-05-19T08:38:09.027Z,7560
2016-05-19T08:39:09.171Z,7768
2016-05-19T08:40:09.017Z,8284
2016-05-19T08:41:09.004Z,9044
2016-05-19T08:42:09.023Z,10196
2016-05-19T08:43:08.822Z,11300
2016-05-19T08:44:08.966Z,11920
2016-05-19T08:45:08.796Z,11924
2016-05-19T08:46:08.940Z,11956
2016-05-19T08:47:08.926Z,12124
2016-05-19T08:48:08.914Z,12320
2016-05-19T08:49:08.775Z,12572
2016-05-19T08:50:08.887Z,12696
2016-05-19T08:51:08.750Z,12692
2016-05-19T08:52:08.721Z,12564
2016-05-19T08:53:09.067Z,11988
2016-05-19T08:54:09.164Z,11392
2016-05-19T08:55:08.745Z,11196
2016-05-19T08:56:08.904Z,11128
2016-05-19T08:57:08.656Z,11200
2016-05-19T08:58:08.816Z,11608
2016-05-19T08:59:08.849Z,11712
2016-05-19T09:00:08.789Z,12260
2016-05-19T09:01:08.824Z,12636
2016-05-19T09:02:08.608Z,12176
2016-05-19T09:03:08.626Z,11228
2016-05-19T09:04:08.738Z,9924
2016-05-19T09:05:08.569Z,8528
2016-05-19T09:06:08.728Z,8800
2016-05-19T09:07:08.433Z,9216
2016-05-19T09:08:08.701Z,9216
2016-05-19T09:09:08.673Z,9416
2016-05-19T09:10:08.676Z,9992
2016-05-19T09:11:08.694Z,9496
2016-05-19T09:12:08.665Z,8756
2016-05-19T09:13:08.669Z,8000
2016-05-19T09:14:08.484Z,7676
2016-05-19T09:15:08.657Z,7120
2016-05-19T09:16:08.615Z,5836
2016-05-19T09:17:08.632Z,4996
2016-05-19T09:18:08.588Z,4524
2016-05-19T09:19:08.575Z,4068
2016-05-19T09:20:08.579Z,4188
2016-05-19T09:21:08.565Z,4604
2016-05-19T09:22:08.411Z,4880
2016-05-19T09:23:08.539Z,5212
2016-05-19T09:24:08.542Z,5440
2016-05-19T09:25:08.514Z,6028
2016-05-19T09:26:08.406Z,6492
2016-05-19T09:27:08.487Z,6940
2016-05-19T09:28:08.489Z,7504
2016-05-19T09:29:08.164Z,7924
2016-05-19T09:30:08.464Z,8280
2016-05-19T09:31:08.451Z,8832
2016-05-19T09:32:08.454Z,8996
2016-05-19T09:33:08.425Z,8920
2016-05-19T09:34:08.413Z,9008
2016-05-19T09:35:08.415Z,8528
2016-05-19T09:36:08.386Z,7256
2016-05-19T09:37:08.373Z,6904
2016-05-19T09:38:08.361Z,7008
2016-05-19T09:39:08.364Z,7616
2016-05-19T09:40:08.366Z,8588
2016-05-19T09:41:08.182Z,8752
2016-05-19T09:42:08.168Z,8532
2016-05-19T09:43:08.327Z,9592
2016-05-19T09:44:08.299Z,10232
2016-05-19T09:45:08.129Z,11048
2016-05-19T09:46:08.132Z,12044
2016-05-19T09:47:08.104Z,12696
2016-05-19T09:48:08.091Z,13396
2016-05-19T09:49:08.093Z,13100
2016-05-19T09:50:08.237Z,12480
2016-05-19T09:51:08.224Z,13212
2016-05-19T09:52:08.211Z,14684
2016-05-19T09:53:08.042Z,16640
2016-05-19T09:54:08.826Z,19680
2016-05-19T09:55:08.015Z,26176
2016-05-19T09:56:08.175Z,25600
2016-05-19T09:57:08.162Z,22848
2016-05-19T09:58:07.992Z,17376
2016-05-19T09:59:07.980Z,20224
2016-05-19T10:00:08.139Z,20384
2016-05-19T10:01:08.110Z,20064
2016-05-19T10:02:08.128Z,19456
2016-05-19T10:03:08.116Z,18912
2016-05-19T10:04:08.119Z,17888
2016-05-19T10:05:08.074Z,13828
2016-05-19T10:06:08.077Z,9792
2016-05-19T10:07:08.064Z,8944
2016-05-19T10:08:08.051Z,8640
2016-05-19T10:09:08.069Z,8000
2016-05-19T10:10:08.041Z,7844
2016-05-19T10:11:08.027Z,7872
2016-05-19T10:12:08.015Z,8056
2016-05-19T10:13:08.002Z,8444
2016-05-19T10:14:08.005Z,8700
2016-05-19T10:15:07.991Z,9176
2016-05-19T10:16:07.979Z,10732
2016-05-19T10:17:07.982Z,11936
2016-05-19T10:18:07.968Z,12780
2016-05-19T10:19:07.955Z,13580
2016-05-19T10:20:07.943Z,14180
2016-05-19T10:21:07.930Z,12188
2016-05-19T10:22:07.620Z,9332
2016-05-19T10:23:07.763Z,7900
2016-05-19T10:24:07.890Z,7588
2016-05-19T10:25:07.909Z,8292
2016-05-19T10:26:07.896Z,9036
2016-05-19T10:27:07.884Z,8392
2016-05-19T10:28:07.886Z,7376
2016-05-19T10:29:07.701Z,7076
2016-05-19T10:30:07.845Z,7396
2016-05-19T10:31:07.831Z,7740
2016-05-19T10:32:07.694Z,7892
2016-05-19T10:33:07.665Z,8036
2016-05-19T10:34:07.825Z,8044
2016-05-19T10:35:07.795Z,7624
2016-05-19T10:36:07.798Z,6728
2016-05-19T10:37:07.800Z,6084
2016-05-19T10:38:07.772Z,5416
2016-05-19T10:39:07.634Z,4792
2016-05-19T10:40:07.606Z,4584
2016-05-19T10:41:07.608Z,4648
2016-05-19T10:42:07.736Z,4900
2016-05-19T10:43:07.739Z,4464
2016-05-19T10:44:07.710Z,4412
2016-05-19T10:45:07.557Z,4636
2016-05-19T10:46:07.716Z,5408
2016-05-19T10:47:07.688Z,6656
2016-05-19T10:48:07.518Z,8240
2016-05-19T10:49:07.521Z,10304
2016-05-19T10:50:07.679Z,14392
2016-05-19T10:51:07.651Z,20256
2016-05-19T10:52:07.638Z,32704
2016-05-19T10:53:08.235Z,71616
2016-05-19T10:54:07.659Z,25248
2016-05-19T10:55:07.599Z,26432
2016-05-19T10:56:07.602Z,24320
2016-05-19T10:57:07.589Z,19904
2016-05-19T10:58:07.575Z,18688
2016-05-19T10:59:07.563Z,24352
2016-05-19T11:00:07.566Z,34944
2016-05-19T11:01:07.553Z,39232
2016-05-19T11:02:07.540Z,37248
2016-05-19T11:03:07.370Z,37344
2016-05-19T11:04:07.373Z,23040
2016-05-19T11:05:07.360Z,21440
2016-05-19T11:06:07.519Z,23040
2016-05-19T11:07:07.506Z,43232
2016-05-19T11:08:07.337Z,33920
2016-05-19T11:09:07.497Z,62880
2016-05-19T11:10:07.483Z,80000
2016-05-19T11:11:07.469Z,81728
2016-05-19T11:12:07.472Z,80672
2016-05-19T11:13:07.461Z,82976
2016-05-19T11:14:07.307Z,78560
2016-05-19T11:15:07.294Z,81344
2016-05-19T11:16:07.437Z,96128
2016-05-19T11:17:07.283Z,40512
2016-05-19T11:18:07.442Z,46016
2016-05-19T11:19:07.445Z,54752
2016-05-19T11:20:07.448Z,18560
2016-05-19T11:21:07.435Z,17056
2016-05-19T11:22:07.437Z,15072
2016-05-19T11:23:07.268Z,13976
2016-05-19T11:24:07.740Z,10956
2016-05-19T11:25:07.415Z,9504
2016-05-19T11:26:07.120Z,8588
2016-05-19T11:27:07.404Z,7852
2016-05-19T11:28:07.407Z,7680
2016-05-19T11:29:07.269Z,7988
2016-05-19T11:30:07.084Z,10392
2016-05-19T11:31:07.399Z,12692
2016-05-19T11:32:07.417Z,10320
2016-05-19T11:33:07.420Z,9940
2016-05-19T11:34:07.391Z,39456
2016-05-19T11:35:07.378Z,11468
2016-05-19T11:36:07.366Z,9352
2016-05-19T11:37:07.369Z,8184
2016-05-19T11:38:07.355Z,7936
2016-05-19T11:39:07.233Z,7628
2016-05-19T11:40:07.344Z,6660
2016-05-19T11:41:07.332Z,5900
2016-05-19T11:42:07.336Z,5928
2016-05-19T11:43:07.338Z,6296
2016-05-19T11:44:07.371Z,6976
2016-05-19T11:45:07.311Z,7904
2016-05-19T11:46:07.299Z,8820
2016-05-19T11:47:07.340Z,9728
2016-05-19T11:48:07.366Z,10560
2016-05-19T11:49:07.425Z,11204
2016-05-19T11:50:07.281Z,11972
2016-05-19T11:51:07.480Z,12920
2016-05-19T11:52:07.484Z,14288
2016-05-19T11:53:07.345Z,16992
2016-05-19T11:54:07.893Z,20256
2016-05-19T11:55:07.504Z,23616
2016-05-19T11:56:07.521Z,39360
2016-05-19T11:57:07.498Z,23808
2016-05-19T11:58:07.506Z,25824
2016-05-19T11:59:07.374Z,26592
2016-05-19T12:00:07.180Z,32448
2016-05-19T12:01:07.531Z,39520
2016-05-19T12:02:07.036Z,65024
2016-05-19T12:03:07.494Z,75648
2016-05-19T12:04:07.482Z,80064
2016-05-19T12:05:07.487Z,85504
2016-05-19T12:06:07.320Z,50208
2016-05-19T12:07:07.479Z,71840
2016-05-19T12:08:07.311Z,32960
2016-05-19T12:09:07.799Z,37312
2016-05-19T12:10:07.302Z,72032
2016-05-19T12:11:07.462Z,27744
2016-05-19T12:12:07.481Z,66304
2016-05-19T12:13:07.468Z,47040
2016-05-19T12:14:07.471Z,57888
2016-05-19T12:15:08.568Z,27648
2016-05-19T12:16:07.447Z,35776
2016-05-19T12:17:07.449Z,62624
2016-05-19T12:18:07.436Z,31744
2016-05-19T12:19:07.283Z,46784
2016-05-19T12:20:07.426Z,63904
2016-05-19T12:21:07.131Z,23232
2016-05-19T12:22:07.431Z,19744
2016-05-19T12:23:07.340Z,18592
2016-05-19T12:24:07.358Z,17056
2016-05-19T12:25:07.251Z,14520
2016-05-19T12:26:07.254Z,13336
2016-05-19T12:27:07.398Z,12716
2016-05-19T12:28:07.401Z,12156
2016-05-19T12:29:07.403Z,11424
2016-05-19T12:30:07.265Z,10652
2016-05-19T12:31:07.409Z,10132
2016-05-19T12:32:07.396Z,9928
2016-05-19T12:33:07.257Z,10188
2016-05-19T12:34:07.385Z,10388
2016-05-19T12:35:07.372Z,11288
2016-05-19T12:36:07.375Z,12728
2016-05-19T12:37:07.065Z,14436
2016-05-19T12:38:07.350Z,17152
2016-05-19T12:39:07.336Z,18880
2016-05-19T12:40:07.542Z,17024
2016-05-19T12:41:07.186Z,16192
2016-05-19T12:42:07.189Z,14992
2016-05-19T12:43:07.347Z,14340
2016-05-19T12:44:07.334Z,14240
2016-05-19T12:45:07.321Z,14012
2016-05-19T12:46:07.324Z,13464
2016-05-19T12:47:07.327Z,14052
2016-05-19T12:48:07.344Z,31680
2016-05-19T12:49:07.347Z,15504
2016-05-19T12:50:07.319Z,13232
2016-05-19T12:51:07.291Z,12396
2016-05-19T12:52:07.137Z,11936
2016-05-19T12:53:07.265Z,11760
2016-05-19T12:54:07.611Z,12572
2016-05-19T12:55:07.270Z,12780
2016-05-19T12:56:07.101Z,12076
2016-05-19T12:57:07.260Z,11656
2016-05-19T12:58:06.934Z,11480
2016-05-19T12:59:07.250Z,10480
2016-05-19T13:00:07.252Z,9716
2016-05-19T13:01:07.224Z,9600
2016-05-19T13:02:07.242Z,9692
2016-05-19T13:03:07.229Z,10260
2016-05-19T13:04:07.059Z,11176
2016-05-19T13:05:07.234Z,11900
2016-05-19T13:06:07.206Z,13024
2016-05-19T13:07:07.193Z,13892
2016-05-19T13:08:07.196Z,14260
2016-05-19T13:09:07.495Z,13920
2016-05-19T13:10:07.170Z,13120
2016-05-19T13:11:07.156Z,12296
2016-05-19T13:12:07.034Z,12056
2016-05-19T13:13:07.147Z,12460
2016-05-19T13:14:07.150Z,14116
2016-05-19T13:15:07.136Z,17504
2016-05-19T13:16:07.122Z,23712
2016-05-19T13:17:07.125Z,25888
2016-05-19T13:18:07.129Z,45664
2016-05-19T13:19:06.960Z,33088
2016-05-19T13:20:06.947Z,26816
2016-05-19T13:21:07.121Z,26368
2016-05-19T13:22:06.936Z,27424
2016-05-19T13:23:07.127Z,30976
2016-05-19T13:24:06.988Z,64064
2016-05-19T13:25:07.085Z,68864
2016-05-19T13:26:06.932Z,71520
2016-05-19T13:27:06.919Z,59680
2016-05-19T13:28:07.094Z,66816
2016-05-19T13:29:06.907Z,74816
2016-05-19T13:30:07.254Z,75712
2016-05-19T13:31:06.898Z,74656
2016-05-19T13:32:07.073Z,69216
2016-05-19T13:33:07.043Z,33888
2016-05-19T13:34:07.046Z,52256